createdAt,value
2022-11-24T00:03:54.996Z,5.07
2022-11-24T00:09:56.537Z,5.37
2022-11-24T00:16:04.172Z,5.53
2022-11-24T00:22:05.634Z,5.28
2022-11-24T00:28:07.333Z,4.90
2022-11-24T00:34:13.078Z,4.68
2022-11-24T00:40:14.529Z,5.20
2022-11-24T00:46:16.328Z,5.18
2022-11-24T00:52:17.849Z,5.57
2022-11-24T00:58:19.620Z,4.73
2022-11-24T01:04:21.066Z,5.20
2022-11-24T01:10:22.545Z,4.70
2022-11-24T01:16:31.482Z,5.13
2022-11-24T01:22:34.647Z,4.78
2022-11-24T01:28:37.018Z,4.93
2022-11-24T01:34:39.188Z,5.30
2022-11-24T01:40:40.658Z,5.60
2022-11-24T01:46:43.868Z,4.55
2022-11-24T01:52:48.040Z,5.07
2022-11-24T01:58:50.300Z,4.83
2022-11-24T02:04:51.996Z,5.57
2022-11-24T02:10:54.657Z,5.03
2022-11-24T02:16:56.148Z,4.97
2022-11-24T02:23:06.739Z,5.00
2022-11-24T02:29:09.022Z,5.30
2022-11-24T02:35:11.162Z,5.50
2022-11-24T02:41:14.907Z,5.67
2022-11-24T02:47:16.489Z,5.18
2022-11-24T02:53:17.931Z,5.30
2022-11-24T02:59:19.602Z,5.73
2022-11-24T03:05:21.142Z,5.57
2022-11-24T03:11:22.718Z,6.80
2022-11-24T03:17:24.261Z,5.75
2022-11-24T03:23:25.988Z,5.63
2022-11-24T03:29:27.468Z,6.27
2022-11-24T03:35:28.991Z,5.97
2022-11-24T03:41:30.468Z,5.97
2022-11-24T03:47:31.957Z,5.60
2022-11-24T03:53:34.011Z,5.90
2022-11-24T03:59:35.472Z,5.90
2022-11-24T04:05:37.230Z,6.03
2022-11-24T04:11:57.522Z,6.00
2022-11-24T04:17:59.031Z,6.30
2022-11-24T04:24:00.730Z,6.35
2022-11-24T04:30:02.392Z,5.70
2022-11-24T04:36:04.039Z,6.00
2022-11-24T04:42:05.778Z,6.50
2022-11-24T04:48:07.410Z,6.40
2022-11-24T04:54:10.180Z,5.90
2022-11-24T05:00:12.001Z,6.77
2022-11-24T05:06:13.528Z,6.38
2022-11-24T05:12:14.970Z,6.70
2022-11-24T05:18:16.565Z,6.97
2022-11-24T05:24:18.026Z,7.07
2022-11-24T05:30:19.614Z,6.70
2022-11-24T05:36:39.878Z,6.97
2022-11-24T05:42:46.663Z,6.13
2022-11-24T05:48:49.051Z,5.70
2022-11-24T05:54:50.573Z,6.30
2022-11-24T06:00:52.144Z,5.87
2022-11-24T06:06:53.611Z,6.10
2022-11-24T06:12:55.161Z,5.77
2022-11-24T06:18:56.642Z,6.07
2022-11-24T06:24:58.242Z,5.85
2022-11-24T06:31:00.676Z,6.40
2022-11-24T06:37:02.386Z,5.95
2022-11-24T06:43:04.063Z,5.57
2022-11-24T06:49:05.701Z,5.90
2022-11-24T06:55:07.550Z,5.95
2022-11-24T07:01:09.194Z,5.57
2022-11-24T07:07:10.962Z,5.78
2022-11-24T07:13:12.633Z,5.33
2022-11-24T07:19:14.210Z,6.00
2022-11-24T07:25:17.374Z,5.70
2022-11-24T07:31:20.389Z,5.17
2022-11-24T07:37:24.509Z,5.05
2022-11-24T07:43:31.142Z,4.97
2022-11-24T07:49:33.784Z,4.95
2022-11-24T07:55:35.241Z,4.90
2022-11-24T08:01:36.766Z,4.40
2022-11-24T08:07:39.351Z,4.63
2022-11-24T08:13:41.175Z,5.00
2022-11-24T08:19:42.840Z,4.45
2022-11-24T08:25:44.369Z,4.75
2022-11-24T08:31:45.938Z,4.90
2022-11-24T08:37:47.658Z,4.57
2022-11-24T08:43:49.169Z,4.70
2022-11-24T08:49:50.829Z,4.70
2022-11-24T08:55:52.348Z,4.68
2022-11-24T09:01:53.840Z,4.77
2022-11-24T09:07:55.464Z,4.53
2022-11-24T09:13:57.043Z,4.13
2022-11-24T09:19:58.560Z,3.92
2022-11-24T09:26:07.139Z,4.28
2022-11-24T09:32:08.669Z,3.50
2022-11-24T09:38:10.263Z,3.78
2022-11-24T09:44:18.428Z,3.90
2022-11-24T09:50:24.091Z,4.03
2022-11-24T09:56:29.979Z,4.00
2022-11-24T10:02:31.900Z,4.20
2022-11-24T10:08:40.330Z,3.67
2022-11-24T10:14:48.779Z,3.50
2022-11-24T10:20:59.669Z,3.10
2022-11-24T10:27:13.736Z,3.33
2022-11-24T10:33:28.763Z,3.00
2022-11-24T10:39:39.009Z,3.00
2022-11-24T10:45:40.930Z,3.20
2022-11-24T10:51:46.642Z,3.33
2022-11-24T10:57:48.296Z,2.58
2022-11-24T11:03:51.699Z,3.00
2022-11-24T11:10:13.209Z,3.47
2022-11-24T11:16:22.932Z,3.00
2022-11-24T11:22:26.803Z,3.60
2022-11-24T11:28:29.469Z,3.63
2022-11-24T11:34:34.835Z,3.43
2022-11-24T11:40:36.573Z,3.22
2022-11-24T11:46:38.275Z,3.83
2022-11-24T11:52:58.323Z,3.72
2022-11-24T11:59:02.648Z,3.40
2022-11-24T12:05:24.860Z,3.63
2022-11-24T12:11:39.879Z,3.90
2022-11-24T12:17:49.267Z,3.73
2022-11-24T12:24:09.868Z,3.42
2022-11-24T12:30:16.403Z,3.03
2022-11-24T12:36:32.345Z,2.60
2022-11-24T12:42:38.655Z,2.97
2022-11-24T12:48:48.815Z,2.40
2022-11-24T12:54:50.414Z,2.58
2022-11-24T13:01:04.525Z,1.90
2022-11-24T13:07:22.114Z,1.80
2022-11-24T13:13:26.281Z,2.05
2022-11-24T13:19:33.511Z,1.97
2022-11-24T13:25:35.552Z,2.10
2022-11-24T13:31:37.180Z,2.20
2022-11-24T13:37:38.682Z,2.07
2022-11-24T13:44:00.290Z,2.42
2022-11-24T13:50:04.020Z,2.50
2022-11-24T13:56:09.696Z,2.50
2022-11-24T14:02:23.166Z,2.47
2022-11-24T14:08:35.892Z,2.67
2022-11-24T14:14:37.786Z,2.45
2022-11-24T14:20:39.536Z,2.30
2022-11-24T14:26:41.238Z,2.45
2022-11-24T14:32:59.381Z,2.40
2022-11-24T14:39:00.910Z,2.30
2022-11-24T14:45:03.853Z,3.03
2022-11-24T14:51:12.800Z,2.53
2022-11-24T14:57:23.230Z,3.10
2022-11-24T15:03:24.797Z,4.32
2022-11-24T15:09:43.591Z,3.90
2022-11-24T15:15:56.350Z,2.97
2022-11-24T15:22:00.592Z,4.23
2022-11-24T15:28:02.097Z,2.72
2022-11-24T15:34:03.752Z,3.22
2022-11-24T15:40:05.700Z,3.63
2022-11-24T15:46:08.307Z,3.67
2022-11-24T15:52:09.848Z,3.57
2022-11-24T15:58:12.297Z,2.95
2022-11-24T16:04:14.314Z,3.42
2022-11-24T16:10:24.798Z,3.00
2022-11-24T16:16:26.417Z,2.33
2022-11-24T16:22:27.965Z,2.77
2022-11-24T16:28:29.523Z,3.17
2022-11-24T16:34:31.073Z,3.00
2022-11-24T16:40:32.550Z,3.43
2022-11-24T16:46:34.067Z,3.85
2022-11-24T16:52:35.664Z,4.20
2022-11-24T16:58:38.006Z,3.92
2022-11-24T17:04:39.573Z,4.78
2022-11-24T17:10:41.124Z,4.30
2022-11-24T17:16:42.799Z,3.40
2022-11-24T17:22:44.346Z,4.10
2022-11-24T17:28:45.850Z,4.15
2022-11-24T17:34:47.451Z,4.15
2022-11-24T17:40:49.010Z,4.23
2022-11-24T17:46:50.572Z,5.25
2022-11-24T17:52:52.234Z,6.03
2022-11-24T17:58:55.294Z,5.35
2022-11-24T18:04:56.790Z,5.85
2022-11-24T18:11:02.744Z,5.77
2022-11-24T18:17:04.581Z,6.10
2022-11-24T18:23:06.411Z,5.90
2022-11-24T18:29:08.290Z,5.60
2022-11-24T18:35:10.461Z,6.07
2022-11-24T18:41:13.609Z,6.10
2022-11-24T18:47:16.401Z,5.80
2022-11-24T18:53:18.411Z,6.53
2022-11-24T18:59:20.218Z,5.72
2022-11-24T19:05:21.820Z,6.53
2022-11-24T19:11:28.339Z,6.03
2022-11-24T19:17:30.007Z,5.63
2022-11-24T19:23:31.626Z,5.43
2022-11-24T19:29:33.215Z,5.57
2022-11-24T19:35:35.054Z,5.10
2022-11-24T19:41:36.717Z,5.13
2022-11-24T19:47:38.637Z,5.15
2022-11-24T19:53:40.431Z,5.03
2022-11-24T19:59:43.259Z,5.03
2022-11-24T20:05:53.821Z,4.63
2022-11-24T20:11:55.530Z,4.90
2022-11-24T20:17:58.636Z,4.60
2022-11-24T20:24:01.629Z,4.40
2022-11-24T20:30:03.385Z,4.35
2022-11-24T20:36:09.743Z,4.65
2022-11-24T20:42:11.486Z,4.97
2022-11-24T20:48:13.271Z,4.75
2022-11-24T20:54:16.737Z,5.57
2022-11-24T21:00:18.664Z,6.22
2022-11-24T21:06:20.350Z,7.55
2022-11-24T21:12:21.955Z,4.10
2022-11-24T21:18:23.572Z,3.83
2022-11-24T21:24:25.165Z,4.10
2022-11-24T21:30:26.744Z,3.80
2022-11-24T21:36:28.611Z,3.90
2022-11-24T21:42:30.264Z,4.03
2022-11-24T21:48:32.785Z,3.80
2022-11-24T21:54:34.632Z,3.80
2022-11-24T22:00:36.503Z,3.85
2022-11-24T22:06:38.118Z,3.72
2022-11-24T22:12:39.764Z,3.90
2022-11-24T22:18:42.182Z,5.00
2022-11-24T22:24:43.650Z,4.73
2022-11-24T22:30:46.181Z,4.90
2022-11-24T22:36:47.679Z,5.05
2022-11-24T22:42:49.165Z,5.10
2022-11-24T22:48:52.925Z,6.07
2022-11-24T22:54:54.401Z,4.33
2022-11-24T23:00:55.983Z,3.92
2022-11-24T23:06:57.559Z,3.90
2022-11-24T23:12:59.057Z,3.63
2022-11-24T23:19:00.719Z,3.60
2022-11-24T23:25:02.186Z,3.30
2022-11-24T23:31:05.048Z,3.20
2022-11-24T23:37:06.501Z,3.70
2022-11-24T23:43:08.005Z,4.10
2022-11-24T23:49:09.558Z,4.00
2022-11-24T23:55:11.037Z,3.70
